createdAt,value
2022-11-28T00:03:33.822Z,0.25
2022-11-28T00:06:21.445Z,0.43
2022-11-28T00:09:09.135Z,0.48
2022-11-28T00:11:56.166Z,0.43
2022-11-28T00:14:43.307Z,0.54
2022-11-28T00:17:30.596Z,0.62
2022-11-28T00:20:17.688Z,0.66
2022-11-28T00:23:04.722Z,0.60
2022-11-28T00:26:03.759Z,0.76
2022-11-28T00:28:51.792Z,0.82
2022-11-28T00:31:42.926Z,0.77
2022-11-28T00:34:30.320Z,0.82
2022-11-28T00:37:17.388Z,0.73
2022-11-28T00:40:04.759Z,0.75
2022-11-28T00:42:51.781Z,0.70
2022-11-28T00:45:38.921Z,0.82
2022-11-28T00:48:26.932Z,0.89
2022-11-28T00:51:17.894Z,0.86
2022-11-28T00:54:06.280Z,0.88
2022-11-28T00:56:53.339Z,0.80
2022-11-28T00:59:40.526Z,0.94
2022-11-28T01:02:28.143Z,0.86
2022-11-28T01:05:15.306Z,0.78
2022-11-28T01:08:02.315Z,0.89
2022-11-28T01:10:49.405Z,0.79
2022-11-28T01:13:36.397Z,0.60
2022-11-28T01:16:23.714Z,0.55
2022-11-28T01:19:11.199Z,0.46
2022-11-28T01:21:58.296Z,0.37
2022-11-28T01:24:45.309Z,0.49
2022-11-28T01:27:32.444Z,0.35
2022-11-28T01:30:19.647Z,0.26
2022-11-28T01:33:06.759Z,0.25
2022-11-28T01:35:58.770Z,0.38
2022-11-28T01:38:46.821Z,0.57
2022-11-28T01:41:34.179Z,0.63
2022-11-28T01:44:21.151Z,0.80
2022-11-28T01:47:08.275Z,0.70
2022-11-28T01:49:55.999Z,0.77
2022-11-28T01:52:48.160Z,0.81
2022-11-28T01:55:40.227Z,0.75
2022-11-28T01:58:28.624Z,0.79
2022-11-28T02:01:17.259Z,0.67
2022-11-28T02:04:04.901Z,0.72
2022-11-28T02:06:51.919Z,0.83
2022-11-28T02:09:38.904Z,0.78
2022-11-28T02:13:07.097Z,0.77
2022-11-28T02:16:09.885Z,0.74
2022-11-28T02:19:27.569Z,0.60
2022-11-28T02:22:27.320Z,0.43
2022-11-28T02:25:52.722Z,0.30
2022-11-28T02:29:11.860Z,0.24
2022-11-28T02:32:17.277Z,0.40
2022-11-28T02:35:20.638Z,0.20
2022-11-28T02:38:39.560Z,0.08
2022-11-28T02:41:35.121Z,0.29
2022-11-28T02:44:49.010Z,-0.06
2022-11-28T02:47:41.139Z,0.00
2022-11-28T02:50:44.029Z,0.05
2022-11-28T02:53:33.840Z,0.09
2022-11-28T02:56:22.880Z,0.15
2022-11-28T02:59:31.513Z,0.12
2022-11-28T03:02:18.617Z,0.10
2022-11-28T03:05:38.077Z,0.00
2022-11-28T03:08:52.294Z,0.16
2022-11-28T03:12:01.170Z,-0.03
2022-11-28T03:14:56.811Z,-0.35
2022-11-28T03:18:24.868Z,-0.12
2022-11-28T03:21:22.330Z,-0.13
2022-11-28T03:24:20.158Z,0.07
2022-11-28T03:27:24.221Z,-0.08
2022-11-28T03:30:22.199Z,-0.24
2022-11-28T03:33:09.887Z,-0.07
2022-11-28T03:36:04.379Z,-0.20
2022-11-28T03:39:00.993Z,-0.33
2022-11-28T03:42:22.300Z,-0.30
2022-11-28T03:45:14.346Z,-0.18
2022-11-28T03:48:06.719Z,-0.27
2022-11-28T03:51:02.909Z,-0.27
2022-11-28T03:54:10.979Z,-0.37
2022-11-28T03:57:19.129Z,-0.29
2022-11-28T04:00:09.140Z,-0.53
2022-11-28T04:03:26.454Z,-0.62
2022-11-28T04:06:39.980Z,-0.68
2022-11-28T04:09:39.728Z,-0.73
2022-11-28T04:12:35.720Z,-0.78
2022-11-28T04:15:52.870Z,-0.76
2022-11-28T04:18:52.091Z,-0.88
2022-11-28T04:21:57.579Z,-0.99
2022-11-28T04:24:54.018Z,-0.96
2022-11-28T04:28:03.451Z,-0.99
2022-11-28T04:30:52.565Z,-1.14
2022-11-28T04:33:44.299Z,-1.21
2022-11-28T04:36:35.608Z,-1.27
2022-11-28T04:39:25.818Z,-1.25
2022-11-28T04:42:18.663Z,-1.41
2022-11-28T04:45:14.194Z,-1.59
2022-11-28T04:48:01.962Z,-1.52
2022-11-28T04:51:12.369Z,-1.49
2022-11-28T04:54:11.217Z,-1.33
2022-11-28T04:57:07.771Z,-1.31
2022-11-28T04:59:56.243Z,-1.39
2022-11-28T05:02:45.352Z,-1.55
2022-11-28T05:05:41.131Z,-1.20
2022-11-28T05:08:28.237Z,-1.38
2022-11-28T05:11:15.265Z,-1.24
2022-11-28T05:14:02.560Z,-1.15
2022-11-28T05:16:50.339Z,-1.35
2022-11-28T05:19:37.409Z,-1.43
2022-11-28T05:22:24.445Z,-1.29
2022-11-28T05:25:11.729Z,-1.27
2022-11-28T05:27:58.790Z,-1.27
2022-11-28T05:30:45.991Z,-1.42
2022-11-28T05:33:33.598Z,-1.39
2022-11-28T05:36:21.186Z,-1.47
2022-11-28T05:39:08.265Z,-1.53
2022-11-28T05:41:56.266Z,-1.60
2022-11-28T05:44:43.501Z,-1.65
2022-11-28T05:47:32.269Z,-1.56
2022-11-28T05:50:19.331Z,-1.61
2022-11-28T05:53:06.407Z,-1.74
2022-11-28T05:55:53.407Z,-1.56
2022-11-28T05:58:41.135Z,-1.61
2022-11-28T06:01:30.005Z,-1.66
2022-11-28T06:04:17.188Z,-1.66
2022-11-28T06:07:04.217Z,-1.80
2022-11-28T06:09:51.462Z,-1.75
2022-11-28T06:12:38.511Z,-1.73
2022-11-28T06:15:25.630Z,-1.78
2022-11-28T06:18:12.598Z,-1.71
2022-11-28T06:21:02.952Z,-1.88
2022-11-28T06:23:50.297Z,-1.84
2022-11-28T06:26:37.409Z,-1.94
2022-11-28T06:29:24.400Z,-1.73
2022-11-28T06:32:11.565Z,-1.75
2022-11-28T06:34:58.623Z,-1.87
2022-11-28T06:37:45.670Z,-1.87
2022-11-28T06:40:32.861Z,-1.97
2022-11-28T06:43:19.924Z,-1.82
2022-11-28T06:46:28.928Z,-1.82
2022-11-28T06:49:15.975Z,-1.77
2022-11-28T06:52:03.408Z,-1.80
2022-11-28T06:54:50.424Z,-1.79
2022-11-28T06:57:38.239Z,-1.77
2022-11-28T07:00:25.543Z,-1.81
2022-11-28T07:03:13.365Z,-1.74
2022-11-28T07:06:04.956Z,-1.62
2022-11-28T07:08:52.286Z,-1.63
2022-11-28T07:11:44.754Z,-1.54
2022-11-28T07:14:33.969Z,-1.58
2022-11-28T07:17:21.049Z,-1.55
2022-11-28T07:20:08.742Z,-1.43
2022-11-28T07:22:55.884Z,-1.30
2022-11-28T07:25:42.975Z,-1.28
2022-11-28T07:28:31.408Z,-1.17
2022-11-28T07:31:21.044Z,-1.03
2022-11-28T07:34:09.387Z,-0.97
2022-11-28T07:36:56.491Z,-0.90
2022-11-28T07:39:44.820Z,-0.90
2022-11-28T07:42:32.119Z,-0.84
2022-11-28T07:45:20.186Z,-0.85
2022-11-28T07:48:07.278Z,-0.88
2022-11-28T07:50:54.291Z,-0.68
2022-11-28T07:53:42.548Z,-0.80
2022-11-28T07:57:04.077Z,-0.52
2022-11-28T07:59:39.863Z,-0.47
2022-11-28T08:02:28.089Z,-0.51
2022-11-28T08:05:15.306Z,-0.33
2022-11-28T08:08:02.505Z,-0.27
2022-11-28T08:10:49.703Z,-0.09
2022-11-28T08:13:38.146Z,-0.16
2022-11-28T08:16:26.900Z,0.01
2022-11-28T08:19:14.035Z,0.11
2022-11-28T08:22:01.116Z,0.36
2022-11-28T08:24:48.121Z,0.46
2022-11-28T08:27:35.276Z,0.55
2022-11-28T08:30:24.522Z,0.74
2022-11-28T08:33:11.738Z,0.85
2022-11-28T08:35:58.958Z,0.95
2022-11-28T08:39:03.291Z,1.11
2022-11-28T08:41:59.741Z,1.31
2022-11-28T08:44:46.854Z,1.20
2022-11-28T08:47:33.913Z,1.19
2022-11-28T08:50:22.221Z,1.31
2022-11-28T08:53:09.238Z,1.28
2022-11-28T08:55:56.435Z,1.47
2022-11-28T09:01:16.131Z,1.63
2022-11-28T09:04:04.489Z,1.72
2022-11-28T09:06:51.934Z,2.12
2022-11-28T09:09:38.935Z,2.19
2022-11-28T09:12:25.947Z,2.30
2022-11-28T09:15:13.519Z,2.40
2022-11-28T09:18:00.793Z,2.55
2022-11-28T09:20:47.812Z,2.65
2022-11-28T09:23:36.016Z,2.61
2022-11-28T09:26:24.888Z,2.68
2022-11-28T09:29:11.951Z,2.72
2022-11-28T09:32:00.040Z,2.65
2022-11-28T09:34:47.123Z,2.77
2022-11-28T09:37:34.177Z,2.91
2022-11-28T09:40:33.280Z,3.01
2022-11-28T09:43:44.040Z,3.19
2022-11-28T09:46:35.348Z,3.10
2022-11-28T09:49:36.799Z,3.11
2022-11-28T09:52:47.450Z,3.16
2022-11-28T09:55:50.179Z,3.16
2022-11-28T09:58:48.614Z,3.24
2022-11-28T10:01:44.525Z,3.52
2022-11-28T10:04:42.397Z,3.58
2022-11-28T10:07:44.304Z,3.81
2022-11-28T10:10:50.514Z,3.93
2022-11-28T10:14:08.093Z,4.11
2022-11-28T10:17:30.208Z,4.12
2022-11-28T10:20:23.372Z,4.12
2022-11-28T10:23:23.888Z,4.30
2022-11-28T10:26:36.192Z,4.34
2022-11-28T10:29:33.531Z,4.20
2022-11-28T10:32:29.379Z,4.07
2022-11-28T10:35:28.925Z,4.22
2022-11-28T10:38:17.154Z,4.15
2022-11-28T10:41:19.207Z,4.28
2022-11-28T10:44:29.728Z,4.36
2022-11-28T10:47:45.454Z,4.46
2022-11-28T10:50:45.550Z,4.41
2022-11-28T10:53:49.223Z,4.46
2022-11-28T10:56:44.945Z,4.38
2022-11-28T10:59:48.938Z,4.50
2022-11-28T11:02:50.959Z,4.64
2022-11-28T11:05:39.495Z,4.68
2022-11-28T11:08:34.807Z,4.73
2022-11-28T11:11:32.319Z,4.70
2022-11-28T11:14:34.550Z,4.69
2022-11-28T11:17:37.811Z,4.75
2022-11-28T11:20:38.831Z,4.67
2022-11-28T11:23:26.092Z,4.57
2022-11-28T11:26:41.277Z,4.68
2022-11-28T11:29:28.271Z,4.61
2022-11-28T11:32:26.536Z,4.63
2022-11-28T11:35:19.454Z,4.68
2022-11-28T11:38:32.347Z,4.77
2022-11-28T11:41:31.587Z,4.81
2022-11-28T11:44:36.686Z,4.97
2022-11-28T11:47:44.200Z,5.10
2022-11-28T11:50:32.107Z,5.32
2022-11-28T11:53:19.304Z,5.49
2022-11-28T11:56:06.658Z,5.38
2022-11-28T11:58:56.123Z,5.23
2022-11-28T12:01:47.799Z,5.23
2022-11-28T12:04:47.073Z,5.31
2022-11-28T12:07:55.343Z,5.37
2022-11-28T12:10:52.531Z,5.28
2022-11-28T12:13:39.883Z,5.25
2022-11-28T12:17:47.346Z,5.30
2022-11-28T12:21:06.530Z,5.29
2022-11-28T12:24:10.076Z,5.27
2022-11-28T12:27:07.630Z,5.11
2022-11-28T12:30:19.635Z,5.30
2022-11-28T12:33:32.393Z,5.22
2022-11-28T12:36:22.431Z,5.29
2022-11-28T12:39:21.533Z,5.19
2022-11-28T12:42:23.632Z,5.29
2022-11-28T12:45:40.711Z,5.13
2022-11-28T12:48:33.630Z,5.25
2022-11-28T12:51:38.869Z,5.09
2022-11-28T12:54:25.829Z,5.11
2022-11-28T12:57:39.018Z,5.10
2022-11-28T13:00:27.821Z,5.08
2022-11-28T13:03:36.049Z,5.13
2022-11-28T13:06:23.061Z,5.23
2022-11-28T13:09:19.031Z,5.30
2022-11-28T13:12:26.999Z,5.32
2022-11-28T13:15:39.202Z,5.38
2022-11-28T13:18:38.388Z,5.50
2022-11-28T13:21:40.511Z,5.46
2022-11-28T13:24:40.269Z,5.42
2022-11-28T13:27:44.741Z,5.40
2022-11-28T13:30:42.319Z,5.50
2022-11-28T13:33:50.653Z,5.47
2022-11-28T13:40:17.839Z,5.55
2022-11-28T13:43:14.195Z,5.74
2022-11-28T13:49:27.604Z,5.81
2022-11-28T13:52:17.548Z,5.79
2022-11-28T13:55:04.985Z,5.40
2022-11-28T13:57:52.124Z,5.52
2022-11-28T14:00:39.925Z,5.62
2022-11-28T14:03:27.148Z,5.66
2022-11-28T14:06:19.028Z,5.58
2022-11-28T14:09:09.304Z,5.42
2022-11-28T14:11:59.835Z,5.63
2022-11-28T14:15:18.750Z,5.42
2022-11-28T14:18:55.739Z,5.30
2022-11-28T14:21:40.754Z,5.34
2022-11-28T14:25:02.491Z,5.36
2022-11-28T14:27:58.614Z,5.16
2022-11-28T14:30:46.940Z,5.01
2022-11-28T14:33:40.792Z,4.97
2022-11-28T14:36:34.325Z,5.10
2022-11-28T14:39:34.819Z,4.97
2022-11-28T14:42:58.367Z,4.76
2022-11-28T14:45:45.425Z,4.59
2022-11-28T14:48:32.595Z,4.65
2022-11-28T14:51:20.428Z,4.52
2022-11-28T14:54:35.677Z,4.30
2022-11-28T14:57:26.086Z,4.24
2022-11-28T15:00:23.069Z,4.22
2022-11-28T15:03:42.058Z,4.16
2022-11-28T15:06:35.483Z,3.84
2022-11-28T15:09:45.952Z,3.99
2022-11-28T15:13:00.779Z,3.92
2022-11-28T15:15:52.925Z,3.73
2022-11-28T15:18:48.435Z,3.58
2022-11-28T15:21:47.581Z,3.70
2022-11-28T15:24:37.519Z,3.62
2022-11-28T15:27:27.617Z,3.78
2022-11-28T15:30:15.532Z,3.71
2022-11-28T15:33:03.863Z,3.42
2022-11-28T15:35:57.085Z,3.49
2022-11-28T15:38:44.250Z,3.46
2022-11-28T15:41:31.518Z,3.38
2022-11-28T15:44:18.790Z,3.17
2022-11-28T15:47:19.821Z,3.28
2022-11-28T15:50:09.838Z,3.30
2022-11-28T15:52:58.540Z,3.28
2022-11-28T15:55:46.432Z,3.29
2022-11-28T15:58:33.523Z,3.14
2022-11-28T16:01:23.733Z,3.14
2022-11-28T16:04:15.347Z,3.08
2022-11-28T16:07:04.708Z,2.92
2022-11-28T16:10:02.024Z,2.90
2022-11-28T16:12:50.299Z,3.08
2022-11-28T16:15:38.648Z,3.10
2022-11-28T16:18:29.642Z,2.92
2022-11-28T16:21:17.691Z,2.65
2022-11-28T16:24:18.208Z,2.75
2022-11-28T16:27:06.766Z,2.82
2022-11-28T16:29:54.683Z,2.78
2022-11-28T16:32:41.969Z,2.79
2022-11-28T16:35:40.575Z,2.79
2022-11-28T16:38:28.238Z,2.81
2022-11-28T16:41:25.570Z,2.79
2022-11-28T16:44:15.740Z,2.78
2022-11-28T16:47:03.138Z,2.78
2022-11-28T16:50:23.856Z,2.81
2022-11-28T16:54:00.082Z,2.82
2022-11-28T16:56:48.472Z,2.73
2022-11-28T16:59:36.105Z,2.70
2022-11-28T17:02:26.436Z,2.70
2022-11-28T17:05:14.005Z,2.72
2022-11-28T17:08:01.933Z,2.74
2022-11-28T17:11:03.083Z,2.65
2022-11-28T17:13:51.843Z,2.61
2022-11-28T17:16:40.598Z,2.58
2022-11-28T17:19:31.347Z,2.57
2022-11-28T17:22:25.540Z,2.54
2022-11-28T17:25:18.574Z,2.48
2022-11-28T17:28:06.214Z,2.45
2022-11-28T17:30:54.442Z,2.45
2022-11-28T17:33:44.865Z,2.40
2022-11-28T17:36:32.560Z,2.40
2022-11-28T17:39:21.317Z,2.30
2022-11-28T17:42:11.767Z,2.33
2022-11-28T17:44:59.421Z,2.32
2022-11-28T17:47:47.985Z,2.29
2022-11-28T17:50:35.919Z,2.32
2022-11-28T17:53:24.393Z,2.27
2022-11-28T17:56:15.603Z,2.24
2022-11-28T17:59:03.578Z,2.23
2022-11-28T18:01:51.755Z,2.26
2022-11-28T18:04:39.718Z,2.25
2022-11-28T18:07:27.303Z,2.19
2022-11-28T18:10:14.638Z,2.16
2022-11-28T18:13:02.296Z,2.17
2022-11-28T18:15:54.395Z,2.17
2022-11-28T18:18:42.181Z,2.15
2022-11-28T18:21:29.493Z,2.05
2022-11-28T18:24:17.927Z,2.13
2022-11-28T18:27:05.693Z,2.06
2022-11-28T18:29:53.423Z,2.02
2022-11-28T18:32:41.522Z,2.03
2022-11-28T18:35:29.142Z,1.91
2022-11-28T18:38:17.049Z,2.01
2022-11-28T18:41:07.125Z,1.93
2022-11-28T18:44:00.762Z,1.92
2022-11-28T18:46:49.222Z,1.89
2022-11-28T18:49:37.303Z,1.86
2022-11-28T18:52:25.185Z,1.89
2022-11-28T18:55:16.508Z,1.86
2022-11-28T18:58:04.480Z,1.83
2022-11-28T19:00:52.801Z,1.85
2022-11-28T19:03:41.946Z,1.86
2022-11-28T19:06:30.627Z,1.84
2022-11-28T19:09:20.680Z,1.85
2022-11-28T19:12:08.835Z,1.82
2022-11-28T19:15:01.843Z,1.82
2022-11-28T19:17:51.244Z,1.77
2022-11-28T19:20:43.828Z,1.73
2022-11-28T19:23:34.640Z,1.80
2022-11-28T19:26:24.827Z,1.76
2022-11-28T19:29:13.587Z,1.76
2022-11-28T19:32:01.885Z,1.72
2022-11-28T19:34:52.891Z,1.68
2022-11-28T19:37:42.649Z,1.68
2022-11-28T19:40:30.835Z,1.63
2022-11-28T19:43:18.610Z,1.63
2022-11-28T19:46:07.550Z,1.56
2022-11-28T19:48:57.492Z,1.51
2022-11-28T19:51:45.934Z,1.51
2022-11-28T19:54:35.319Z,1.48
2022-11-28T19:57:24.257Z,1.45
2022-11-28T20:00:14.113Z,1.41
2022-11-28T20:03:01.611Z,1.37
2022-11-28T20:05:51.198Z,1.29
2022-11-28T20:08:40.050Z,1.26
2022-11-28T20:11:31.412Z,1.26
2022-11-28T20:14:24.032Z,1.17
2022-11-28T20:17:11.993Z,1.08
2022-11-28T20:20:00.482Z,1.00
2022-11-28T20:22:57.702Z,0.96
2022-11-28T20:25:45.758Z,0.86
2022-11-28T20:28:35.609Z,0.85
2022-11-28T20:31:31.644Z,0.77
2022-11-28T20:34:22.314Z,0.75
2022-11-28T20:37:10.037Z,0.76
2022-11-28T20:39:57.599Z,0.70
2022-11-28T20:42:45.786Z,0.68
2022-11-28T20:45:34.042Z,0.65
2022-11-28T20:48:23.332Z,0.63
2022-11-28T20:51:20.430Z,0.59
2022-11-28T20:54:11.518Z,0.61
2022-11-28T20:57:20.318Z,0.60
2022-11-28T21:00:08.242Z,0.61
2022-11-28T21:02:57.166Z,0.64
2022-11-28T21:05:44.691Z,0.62
2022-11-28T21:08:34.245Z,0.65
2022-11-28T21:11:55.643Z,0.78
2022-11-28T21:14:31.446Z,0.85
2022-11-28T21:17:18.934Z,0.74
2022-11-28T21:20:08.663Z,0.71
2022-11-28T21:22:56.479Z,0.72
2022-11-28T21:25:44.802Z,0.79
2022-11-28T21:28:32.213Z,0.92
2022-11-28T21:31:22.503Z,0.83
2022-11-28T21:34:11.000Z,0.82
2022-11-28T21:36:58.001Z,0.94
2022-11-28T21:39:45.332Z,0.86
2022-11-28T21:42:32.598Z,0.80
2022-11-28T21:45:20.040Z,0.76
2022-11-28T21:48:07.036Z,0.94
2022-11-28T21:50:54.084Z,0.99
2022-11-28T21:53:41.101Z,0.94
2022-11-28T21:56:28.377Z,0.87
2022-11-28T21:59:15.485Z,0.86
2022-11-28T22:02:05.991Z,0.89
2022-11-28T22:04:55.588Z,0.87
2022-11-28T22:07:42.676Z,0.92
2022-11-28T22:10:29.833Z,1.10
2022-11-28T22:13:16.882Z,0.84
2022-11-28T22:16:16.939Z,1.00
2022-11-28T22:19:04.253Z,0.97
2022-11-28T22:21:52.504Z,1.15
2022-11-28T22:24:41.491Z,1.15
2022-11-28T22:27:32.727Z,1.07
2022-11-28T22:30:19.881Z,0.99
2022-11-28T22:33:06.955Z,1.02
2022-11-28T22:35:54.048Z,0.97
2022-11-28T22:38:43.019Z,0.97
2022-11-28T22:41:30.091Z,0.87
2022-11-28T22:44:17.372Z,1.04
2022-11-28T22:47:04.681Z,0.96
2022-11-28T22:49:51.783Z,1.10
2022-11-28T22:52:38.791Z,0.98
2022-11-28T22:55:25.825Z,0.86
2022-11-28T22:58:12.912Z,0.88
2022-11-28T23:00:59.919Z,0.86
2022-11-28T23:03:47.076Z,0.80
2022-11-28T23:06:35.126Z,0.85
2022-11-28T23:09:22.227Z,0.94
2022-11-28T23:12:09.244Z,0.90
2022-11-28T23:14:56.232Z,0.92
2022-11-28T23:17:43.301Z,0.98
2022-11-28T23:20:30.299Z,0.72
2022-11-28T23:23:17.334Z,0.88
2022-11-28T23:26:10.041Z,1.17
2022-11-28T23:29:00.278Z,1.13
2022-11-28T23:31:47.561Z,1.25
2022-11-28T23:34:34.698Z,1.33
2022-11-28T23:37:21.662Z,1.40
2022-11-28T23:40:09.284Z,1.42
2022-11-28T23:42:56.236Z,1.49
2022-11-28T23:45:43.322Z,1.64
2022-11-28T23:48:30.440Z,1.77
2022-11-28T23:51:21.539Z,1.73
2022-11-28T23:54:10.964Z,1.81
2022-11-28T23:56:57.981Z,1.79
2022-11-28T23:59:44.952Z,1.80
